Motion Scan — PCNB — position and weather

sailwx.info

Track history (hours):
 
Tides and Currents Weather Stations Pressure Air Temp Water Temp Dewpoint Dewpoint Depression Visibility Wind Speed Wind Dir Waves Ship Positions

Motion Scan

Last reported at 2015-Feb-22 01:08 UTC. Time now 2015-Feb-27 06:06 UTC.
Position N 01°55' E 102°20'.

Length 116 m; draft 5.5 m.

Type: Cargo ship. MMSI: 245523000.

Date/timePositionNaut miles runAvg speedWind from/ knotsBaromVisibWave heightAir tempDewpointWater temp
2015-Feb-22 01:08N 01°55' E 102°20'712.1
2015-Feb-22 00:32N 01°51' E 102°27'1313.4
2015-Feb-21 23:33N 01°45' E 102°38'7013.1
2015-Feb-21 18:11N 01°13' E 103°41'5 8.4
2015-Feb-21 17:33N 01°17' E 103°44'0 0.0
2015-Feb-20 23:32N 01°17' E 103°44'10 8.1
2015-Feb-20 22:21N 01°13' E 103°53'2 2.4
2015-Feb-20 21:24N 01°15' E 103°53'0 0.0
2015-Feb-20 20:06N 01°15' E 103°53'0 0.0
2015-Feb-20 19:30N 01°15' E 103°53'0 0.0
2015-Feb-20 18:24N 01°15' E 103°53'0 0.0
2015-Feb-20 17:30N 01°15' E 103°53'0 0.0
2015-Feb-20 16:24N 01°15' E 103°53'0 0.0
2015-Feb-20 15:24N 01°15' E 103°53'0 0.0
2015-Feb-20 14:30N 01°15' E 103°53'0 0.0
2015-Feb-20 13:24N 01°15' E 103°53'0 0.0
2015-Feb-20 12:33N 01°15' E 103°53'0 0.0
2015-Feb-20 11:24N 01°15' E 103°53'0 0.1
2015-Feb-20 09:24N 01°16' E 103°53'0 0.0
2015-Feb-20 08:33N 01°16' E 103°53'1 0.6
2015-Feb-20 07:30N 01°15' E 103°54'7 7.5
2015-Feb-20 06:33N 01°16' E 104°01'  
Track history (hours):
 
Tides and Currents Weather Stations Pressure Air Temp Water Temp Dewpoint Dewpoint Depression Visibility Wind Speed Wind Dir Waves Ship Positions

Motion Scan

Last reported at 2015-Feb-22 01:08 UTC. Time now 2015-Feb-27 06:06 UTC.
Position N 01°55' E 102°20'.

Length 116 m; draft 5.5 m.

Type: Cargo ship. MMSI: 245523000.

Date/timePositionNaut miles runAvg speedWind from/ knotsBaromVisibWave heightAir tempDewpointWater temp
2015-Feb-22 01:08N 01°55' E 102°20'712.1
2015-Feb-22 00:32N 01°51' E 102°27'1313.4
2015-Feb-21 23:33N 01°45' E 102°38'7013.1
2015-Feb-21 18:11N 01°13' E 103°41'5 8.4
2015-Feb-21 17:33N 01°17' E 103°44'0 0.0
2015-Feb-20 23:32N 01°17' E 103°44'10 8.1
2015-Feb-20 22:21N 01°13' E 103°53'2 2.4
2015-Feb-20 21:24N 01°15' E 103°53'0 0.0
2015-Feb-20 20:06N 01°15' E 103°53'0 0.0
2015-Feb-20 19:30N 01°15' E 103°53'0 0.0
2015-Feb-20 18:24N 01°15' E 103°53'0 0.0
2015-Feb-20 17:30N 01°15' E 103°53'0 0.0
2015-Feb-20 16:24N 01°15' E 103°53'0 0.0
2015-Feb-20 15:24N 01°15' E 103°53'0 0.0
2015-Feb-20 14:30N 01°15' E 103°53'0 0.0
2015-Feb-20 13:24N 01°15' E 103°53'0 0.0
2015-Feb-20 12:33N 01°15' E 103°53'0 0.0
2015-Feb-20 11:24N 01°15' E 103°53'0 0.1
2015-Feb-20 09:24N 01°16' E 103°53'0 0.0
2015-Feb-20 08:33N 01°16' E 103°53'1 0.6
2015-Feb-20 07:30N 01°15' E 103°54'7 7.5
2015-Feb-20 06:33N 01°16' E 104°01'  

Dump ship's entire track history